sensor_id;sensor_type;location;lat;lon;timestamp;P1;durP1;ratioP1;P2;durP2;ratioP2
34007;SDS011;41085;51.594;7.138;2023-03-01T00:01:52;0.25;;;0.17;;
34007;SDS011;41085;51.594;7.138;2023-03-01T00:05:53;0.20;;;0.10;;
34007;SDS011;41085;51.594;7.138;2023-03-01T00:09:53;0.20;;;0.10;;
34007;SDS011;41085;51.594;7.138;2023-03-01T00:13:58;0.35;;;0.28;;
34007;SDS011;41085;51.594;7.138;2023-03-01T00:18:00;0.57;;;0.20;;
34007;SDS011;41085;51.594;7.138;2023-03-01T00:22:04;0.15;;;0.15;;
34007;SDS011;41085;51.594;7.138;2023-03-01T00:26:06;0.47;;;0.20;;
34007;SDS011;41085;51.594;7.138;2023-03-01T00:30:09;0.10;;;0.10;;
34007;SDS011;41085;51.594;7.138;2023-03-01T00:34:11;0.10;;;0.10;;
34007;SDS011;41085;51.594;7.138;2023-03-01T00:38:11;0.10;;;0.07;;
34007;SDS011;41085;51.594;7.138;2023-03-01T00:42:12;0.60;;;0.20;;
34007;SDS011;41085;51.594;7.138;2023-03-01T00:46:14;0.25;;;0.25;;
34007;SDS011;41085;51.594;7.138;2023-03-01T00:50:19;1.30;;;0.20;;
34007;SDS011;41085;51.594;7.138;2023-03-01T00:54:19;0.10;;;0.10;;
34007;SDS011;41085;51.594;7.138;2023-03-01T00:58:20;0.20;;;0.10;;
34007;SDS011;41085;51.594;7.138;2023-03-01T01:02:21;0.30;;;0.00;;
34007;SDS011;41085;51.594;7.138;2023-03-01T01:06:25;0.50;;;0.20;;
34007;SDS011;41085;51.594;7.138;2023-03-01T01:10:28;0.17;;;0.10;;
34007;SDS011;41085;51.594;7.138;2023-03-01T01:14:28;0.25;;;0.10;;
34007;SDS011;41085;51.594;7.138;2023-03-01T01:18:29;0.20;;;0.10;;
34007;SDS011;41085;51.594;7.138;2023-03-01T01:22:30;0.17;;;0.15;;
34007;SDS011;41085;51.594;7.138;2023-03-01T01:26:32;0.30;;;0.17;;
34007;SDS011;41085;51.594;7.138;2023-03-01T01:30:39;2.00;;;0.20;;
34007;SDS011;41085;51.594;7.138;2023-03-01T01:34:43;0.10;;;0.10;;
34007;SDS011;41085;51.594;7.138;2023-03-01T01:38:49;0.20;;;0.20;;
34007;SDS011;41085;51.594;7.138;2023-03-01T01:42:49;0.28;;;0.10;;
34007;SDS011;41085;51.594;7.138;2023-03-01T01:46:57;0.20;;;0.20;;
34007;SDS011;41085;51.594;7.138;2023-03-01T01:51:04;0.03;;;0.03;;
34007;SDS011;41085;51.594;7.138;2023-03-01T01:59:08;0.00;;;0.00;;
34007;SDS011;41085;51.594;7.138;2023-03-01T02:03:10;0.43;;;0.10;;
34007;SDS011;41085;51.594;7.138;2023-03-01T02:07:15;0.05;;;0.05;;
34007;SDS011;41085;51.594;7.138;2023-03-01T02:11:18;1.85;;;0.30;;
34007;SDS011;41085;51.594;7.138;2023-03-01T02:15:19;4.50;;;0.20;;
34007;SDS011;41085;51.594;7.138;2023-03-01T02:28:48;0.10;;;0.10;;
34007;SDS011;41085;51.594;7.138;2023-03-01T02:33:08;0.40;;;0.10;;
34007;SDS011;41085;51.594;7.138;2023-03-01T02:48:09;0.10;;;0.10;;
34007;SDS011;41085;51.594;7.138;2023-03-01T03:02:17;0.40;;;0.10;;
34007;SDS011;41085;51.594;7.138;2023-03-01T03:06:49;0.50;;;0.03;;
34007;SDS011;41085;51.594;7.138;2023-03-01T03:11:05;0.20;;;0.20;;
34007;SDS011;41085;51.594;7.138;2023-03-01T03:15:12;2.30;;;0.20;;
34007;SDS011;41085;51.594;7.138;2023-03-01T03:19:36;0.03;;;0.03;;
34007;SDS011;41085;51.594;7.138;2023-03-01T03:23:37;0.90;;;0.10;;
34007;SDS011;41085;51.594;7.138;2023-03-01T03:27:39;0.20;;;0.10;;
34007;SDS011;41085;51.594;7.138;2023-03-01T03:31:41;0.30;;;0.20;;
34007;SDS011;41085;51.594;7.138;2023-03-01T03:35:43;0.10;;;0.10;;
34007;SDS011;41085;51.594;7.138;2023-03-01T03:39:44;0.20;;;0.20;;
34007;SDS011;41085;51.594;7.138;2023-03-01T03:43:45;0.10;;;0.10;;
34007;SDS011;41085;51.594;7.138;2023-03-01T03:47:46;0.10;;;0.10;;
34007;SDS011;41085;51.594;7.138;2023-03-01T03:51:56;0.15;;;0.10;;
34007;SDS011;41085;51.594;7.138;2023-03-01T03:55:59;0.20;;;0.10;;
34007;SDS011;41085;51.594;7.138;2023-03-01T04:00:00;0.80;;;0.30;;
34007;SDS011;41085;51.594;7.138;2023-03-01T04:04:03;0.30;;;0.20;;
34007;SDS011;41085;51.594;7.138;2023-03-01T04:08:04;0.08;;;0.08;;
34007;SDS011;41085;51.594;7.138;2023-03-01T04:12:11;0.20;;;0.10;;
34007;SDS011;41085;51.594;7.138;2023-03-01T05:04:35;0.00;;;0.00;;
34007;SDS011;41085;51.594;7.138;2023-03-01T05:13:06;0.20;;;0.10;;
34007;SDS011;41085;51.594;7.138;2023-03-01T05:17:07;1.80;;;0.13;;
34007;SDS011;41085;51.594;7.138;2023-03-01T05:21:09;0.10;;;0.10;;
34007;SDS011;41085;51.594;7.138;2023-03-01T05:25:11;0.40;;;0.10;;
34007;SDS011;41085;51.594;7.138;2023-03-01T05:29:13;0.40;;;0.20;;
34007;SDS011;41085;51.594;7.138;2023-03-01T05:33:14;0.00;;;0.00;;
34007;SDS011;41085;51.594;7.138;2023-03-01T05:37:15;0.30;;;0.20;;
34007;SDS011;41085;51.594;7.138;2023-03-01T05:41:15;0.20;;;0.20;;
34007;SDS011;41085;51.594;7.138;2023-03-01T05:45:20;0.60;;;0.60;;
34007;SDS011;41085;51.594;7.138;2023-03-01T17:42:23;0.13;;;0.13;;
34007;SDS011;41085;51.594;7.138;2023-03-01T17:46:25;0.20;;;0.20;;
34007;SDS011;41085;51.594;7.138;2023-03-01T17:50:57;0.30;;;0.30;;
34007;SDS011;41085;51.594;7.138;2023-03-01T18:04:04;0.10;;;0.10;;
34007;SDS011;41085;51.594;7.138;2023-03-01T18:08:31;0.40;;;0.10;;
34007;SDS011;41085;51.594;7.138;2023-03-01T18:12:41;0.17;;;0.10;;
34007;SDS011;41085;51.594;7.138;2023-03-01T18:16:45;0.10;;;0.10;;
34007;SDS011;41085;51.594;7.138;2023-03-01T18:20:58;0.10;;;0.10;;
34007;SDS011;41085;51.594;7.138;2023-03-01T18:25:33;0.10;;;0.10;;
34007;SDS011;41085;51.594;7.138;2023-03-01T18:29:43;0.22;;;0.08;;
34007;SDS011;41085;51.594;7.138;2023-03-01T18:33:51;0.63;;;0.10;;
34007;SDS011;41085;51.594;7.138;2023-03-01T18:38:01;0.10;;;0.10;;
34007;SDS011;41085;51.594;7.138;2023-03-01T18:42:08;0.10;;;0.10;;
34007;SDS011;41085;51.594;7.138;2023-03-01T18:46:15;0.20;;;0.00;;
34007;SDS011;41085;51.594;7.138;2023-03-01T18:50:29;0.30;;;0.10;;
34007;SDS011;41085;51.594;7.138;2023-03-01T18:54:59;0.20;;;0.10;;
34007;SDS011;41085;51.594;7.138;2023-03-01T18:59:57;0.40;;;0.10;;
34007;SDS011;41085;51.594;7.138;2023-03-01T19:04:01;0.30;;;0.10;;
34007;SDS011;41085;51.594;7.138;2023-03-01T19:08:28;0.10;;;0.00;;
34007;SDS011;41085;51.594;7.138;2023-03-01T19:12:44;0.10;;;0.10;;
34007;SDS011;41085;51.594;7.138;2023-03-01T19:17:11;0.45;;;0.30;;
34007;SDS011;41085;51.594;7.138;2023-03-01T19:27:17;0.10;;;0.10;;
34007;SDS011;41085;51.594;7.138;2023-03-01T19:31:46;1.50;;;0.15;;
34007;SDS011;41085;51.594;7.138;2023-03-01T19:50:41;0.30;;;0.10;;
34007;SDS011;41085;51.594;7.138;2023-03-01T19:55:30;0.10;;;0.10;;
34007;SDS011;41085;51.594;7.138;2023-03-01T20:00:05;0.00;;;0.00;;
34007;SDS011;41085;51.594;7.138;2023-03-01T20:04:50;0.30;;;0.10;;
34007;SDS011;41085;51.594;7.138;2023-03-01T20:13:55;0.00;;;0.00;;
34007;SDS011;41085;51.594;7.138;2023-03-01T20:18:21;0.00;;;0.00;;
34007;SDS011;41085;51.594;7.138;2023-03-01T20:22:22;0.10;;;0.10;;
34007;SDS011;41085;51.594;7.138;2023-03-01T20:26:22;0.10;;;0.10;;
34007;SDS011;41085;51.594;7.138;2023-03-01T20:30:24;0.00;;;0.00;;
34007;SDS011;41085;51.594;7.138;2023-03-01T20:34:24;0.30;;;0.23;;
34007;SDS011;41085;51.594;7.138;2023-03-01T20:38:28;0.17;;;0.13;;
34007;SDS011;41085;51.594;7.138;2023-03-01T20:42:32;0.10;;;0.10;;
34007;SDS011;41085;51.594;7.138;2023-03-01T20:46:33;0.10;;;0.05;;
34007;SDS011;41085;51.594;7.138;2023-03-01T20:50:34;0.50;;;0.50;;
34007;SDS011;41085;51.594;7.138;2023-03-01T20:54:39;0.05;;;0.05;;
34007;SDS011;41085;51.594;7.138;2023-03-01T20:58:49;1.60;;;0.20;;
34007;SDS011;41085;51.594;7.138;2023-03-01T21:02:50;0.10;;;0.10;;
34007;SDS011;41085;51.594;7.138;2023-03-01T21:06:50;0.10;;;0.00;;
34007;SDS011;41085;51.594;7.138;2023-03-01T21:10:51;0.10;;;0.10;;
34007;SDS011;41085;51.594;7.138;2023-03-01T21:14:53;0.20;;;0.10;;
34007;SDS011;41085;51.594;7.138;2023-03-01T21:18:54;1.30;;;0.00;;
34007;SDS011;41085;51.594;7.138;2023-03-01T21:22:54;0.37;;;0.17;;
34007;SDS011;41085;51.594;7.138;2023-03-01T21:26:58;0.30;;;0.30;;
34007;SDS011;41085;51.594;7.138;2023-03-01T21:31:05;0.10;;;0.10;;
34007;SDS011;41085;51.594;7.138;2023-03-01T21:35:11;0.30;;;0.10;;
34007;SDS011;41085;51.594;7.138;2023-03-01T21:39:12;0.10;;;0.10;;
34007;SDS011;41085;51.594;7.138;2023-03-01T21:43:13;0.10;;;0.10;;
34007;SDS011;41085;51.594;7.138;2023-03-01T21:47:14;0.10;;;0.10;;
34007;SDS011;41085;51.594;7.138;2023-03-01T21:51:15;0.40;;;0.10;;
34007;SDS011;41085;51.594;7.138;2023-03-01T21:55:17;3.60;;;0.22;;
34007;SDS011;41085;51.594;7.138;2023-03-01T21:59:21;0.20;;;0.20;;
34007;SDS011;41085;51.594;7.138;2023-03-01T22:03:23;0.20;;;0.20;;
34007;SDS011;41085;51.594;7.138;2023-03-01T22:07:28;0.08;;;0.08;;
34007;SDS011;41085;51.594;7.138;2023-03-01T22:11:29;0.10;;;0.10;;
34007;SDS011;41085;51.594;7.138;2023-03-01T22:15:31;0.00;;;0.00;;
34007;SDS011;41085;51.594;7.138;2023-03-01T22:19:31;0.10;;;0.07;;
34007;SDS011;41085;51.594;7.138;2023-03-01T22:23:32;0.63;;;0.20;;
34007;SDS011;41085;51.594;7.138;2023-03-01T22:27:34;0.00;;;0.00;;
34007;SDS011;41085;51.594;7.138;2023-03-01T22:31:36;0.30;;;0.20;;
34007;SDS011;41085;51.594;7.138;2023-03-01T22:35:40;0.10;;;0.10;;
34007;SDS011;41085;51.594;7.138;2023-03-01T22:39:43;0.20;;;0.20;;
34007;SDS011;41085;51.594;7.138;2023-03-01T22:43:44;0.30;;;0.20;;
34007;SDS011;41085;51.594;7.138;2023-03-01T22:47:44;0.23;;;0.10;;
34007;SDS011;41085;51.594;7.138;2023-03-01T22:51:45;0.17;;;0.17;;
34007;SDS011;41085;51.594;7.138;2023-03-01T22:55:46;4.45;;;0.15;;
34007;SDS011;41085;51.594;7.138;2023-03-01T22:59:46;0.03;;;0.00;;
34007;SDS011;41085;51.594;7.138;2023-03-01T23:03:47;0.50;;;0.40;;
34007;SDS011;41085;51.594;7.138;2023-03-01T23:07:48;4.32;;;0.90;;
34007;SDS011;41085;51.594;7.138;2023-03-01T23:11:49;22.63;;;9.73;;
34007;SDS011;41085;51.594;7.138;2023-03-01T23:15:53;17.43;;;8.20;;
34007;SDS011;41085;51.594;7.138;2023-03-01T23:19:55;17.03;;;10.43;;
34007;SDS011;41085;51.594;7.138;2023-03-01T23:23:56;19.60;;;10.73;;
34007;SDS011;41085;51.594;7.138;2023-03-01T23:27:56;16.67;;;9.57;;
34007;SDS011;41085;51.594;7.138;2023-03-01T23:31:57;22.23;;;10.20;;
34007;SDS011;41085;51.594;7.138;2023-03-01T23:35:58;22.33;;;11.00;;
34007;SDS011;41085;51.594;7.138;2023-03-01T23:40:02;15.15;;;8.85;;
34007;SDS011;41085;51.594;7.138;2023-03-01T23:44:05;18.58;;;9.65;;
34007;SDS011;41085;51.594;7.138;2023-03-01T23:48:05;13.60;;;7.17;;
34007;SDS011;41085;51.594;7.138;2023-03-01T23:52:06;13.43;;;8.75;;
34007;SDS011;41085;51.594;7.138;2023-03-01T23:56:15;15.60;;;8.30;;
